TimeCDT,TemperatureF,Dew PointF,Humidity,Sea Level PressureIn,VisibilityMPH,Wind Direction,Wind SpeedMPH,Gust SpeedMPH,PrecipitationIn,Events,Conditions,WindDirDegrees,DateUTC
12:53 AM,64.0,46.9,54,29.65,10.0,SW,5.8,-,N/A,,Clear,220,2013-05-14 05:53:00
1:53 AM,63.0,46.0,54,29.65,10.0,SSW,5.8,-,N/A,,Clear,210,2013-05-14 06:53:00
2:53 AM,63.0,46.0,54,29.66,10.0,Calm,Calm,-,N/A,,Clear,0,2013-05-14 07:53:00
3:53 AM,61.0,46.0,58,29.66,10.0,SSW,3.5,-,N/A,,Clear,210,2013-05-14 08:53:00
4:53 AM,59.0,46.0,62,29.66,10.0,SSW,3.5,-,N/A,,Clear,200,2013-05-14 09:53:00
5:53 AM,53.1,46.0,77,29.66,10.0,Calm,Calm,-,N/A,,Clear,0,2013-05-14 10:53:00
6:53 AM,57.9,46.9,67,29.65,10.0,SSW,5.8,-,N/A,,Clear,200,2013-05-14 11:53:00
7:53 AM,63.0,46.9,56,29.67,10.0,SW,5.8,-,N/A,,Clear,230,2013-05-14 12:53:00
8:53 AM,69.1,48.9,49,29.63,10.0,SE,5.8,-,N/A,,Clear,140,2013-05-14 13:53:00
9:53 AM,73.0,48.0,41,29.66,10.0,NW,5.8,-,N/A,,Clear,310,2013-05-14 14:53:00
10:53 AM,73.0,52.0,48,29.65,10.0,East,3.5,-,N/A,,Mostly Cloudy,80,2013-05-14 15:53:00
11:53 AM,77.0,51.1,40,29.59,10.0,ENE,15.0,20.7,N/A,,Partly Cloudy,70,2013-05-14 16:53:00
12:53 PM,84.9,51.1,31,29.51,10.0,ESE,18.4,25.3,N/A,,Clear,120,2013-05-14 17:53:00
1:53 PM,90.0,46.9,23,29.49,10.0,SSE,16.1,35.7,N/A,,Clear,160,2013-05-14 18:53:00
2:53 PM,93.9,52.0,24,29.45,10.0,SSE,10.4,20.7,N/A,,Clear,150,2013-05-14 19:53:00
3:53 PM,98.1,52.0,21,29.42,10.0,NNW,8.1,-,N/A,,Clear,340,2013-05-14 20:53:00
4:53 PM,97.0,48.0,19,29.44,10.0,West,19.6,29.9,N/A,,Clear,280,2013-05-14 21:53:00
5:53 PM,95.0,37.0,13,29.47,10.0,WNW,23.0,29.9,N/A,,Clear,300,2013-05-14 22:53:00
6:53 PM,91.0,36.0,14,29.49,10.0,West,19.6,29.9,N/A,,Clear,280,2013-05-14 23:53:00
7:53 PM,84.9,35.1,17,29.53,10.0,West,19.6,28.8,N/A,,Clear,280,2013-05-15 00:53:00
8:53 PM,79.0,28.9,16,29.56,10.0,West,9.2,19.6,N/A,,Clear,280,2013-05-15 01:53:00
9:53 PM,78.1,35.1,21,29.60,10.0,NW,16.1,23.0,N/A,,Clear,310,2013-05-15 02:53:00
10:53 PM,73.9,39.9,29,29.63,10.0,WNW,13.8,25.3,N/A,,Clear,300,2013-05-15 03:53:00
11:53 PM,71.1,43.0,36,29.66,10.0,WNW,15.0,23.0,N/A,,Clear,300,2013-05-15 04:53:00